YOO weather

Toronto/Oshawa Executive Airport
Oshawa, Ontario, Canada

Public forecast

Using degrees Celsius for public forecast. Weather courtesy of forecast.io.

METAR (pilot weather report)

Retrieved 2019/01/23 17:00 UTC (1 hour ago):

CYOO 231700Z AUTO 11006KT 1 3/4SM -RA BR OVC003 01/01 A2980 RMK PRESFR SLP100

TAF (pilot weather forecast)

Retrieved 2019/01/23 14:00 UTC (4 hours ago):

TAF CYOO 231339Z 2314/2402 16005KT 3/4SM -SN OVC003 TEMPO 2314/2316 3SM -RAPL BR OVC008 PROB30 2314/2316 4SM -FZRA -RA BR OVC002 FM231600 20012KT 1SM -RA BR OVC002 TEMPO 2316/2402 3SM -RA BR OVC005 BECMG 2318/2320 21015G25KT RMK FCST BASED ON AUTO OBS. NXT FCST BY 232000Z